createdAt,value
2018-04-17T00:00:53.061Z,13.80
2018-04-17T00:03:21.349Z,13.70
2018-04-17T00:05:48.880Z,13.70
2018-04-17T00:08:17.176Z,13.60
2018-04-17T00:10:45.477Z,13.70
2018-04-17T00:13:13.018Z,13.60
2018-04-17T00:15:40.609Z,13.70
2018-04-17T00:18:08.130Z,13.70
2018-04-17T00:20:36.442Z,13.60
2018-04-17T00:23:03.948Z,13.60
2018-04-17T00:25:31.610Z,13.60
2018-04-17T00:27:59.170Z,13.50
2018-04-17T00:30:26.695Z,13.30
2018-04-17T00:32:54.231Z,13.30
2018-04-17T00:35:21.749Z,13.30
2018-04-17T00:37:50.078Z,13.20
2018-04-17T00:40:17.659Z,13.20
2018-04-17T00:42:45.226Z,13.20
2018-04-17T00:45:12.780Z,13.20
2018-04-17T00:47:40.315Z,13.10
2018-04-17T00:50:07.918Z,13.00
2018-04-17T00:52:35.526Z,12.90
2018-04-17T00:55:03.187Z,13.00
2018-04-17T00:57:30.746Z,13.00
2018-04-17T00:59:58.324Z,13.00
2018-04-17T01:02:25.846Z,13.00
2018-04-17T01:04:54.135Z,12.90
2018-04-17T01:07:21.681Z,12.90
2018-04-17T01:09:49.187Z,12.90
2018-04-17T01:12:16.726Z,12.90
2018-04-17T01:14:44.257Z,12.90
2018-04-17T01:17:11.762Z,12.90
2018-04-17T01:19:39.281Z,12.80
2018-04-17T01:22:07.590Z,12.60
2018-04-17T01:24:35.119Z,12.60
2018-04-17T01:27:02.616Z,12.60
2018-04-17T01:29:30.174Z,12.50
2018-04-17T01:31:57.684Z,12.50
2018-04-17T01:34:25.290Z,12.50
2018-04-17T01:36:52.830Z,12.40
2018-04-17T01:39:20.387Z,12.50
2018-04-17T01:41:47.972Z,12.50
2018-04-17T01:44:15.502Z,12.60
2018-04-17T01:46:43.790Z,12.40
2018-04-17T01:49:11.391Z,12.40
2018-04-17T01:51:38.945Z,12.40
2018-04-17T01:56:57.208Z,12.40
2018-04-17T01:59:24.764Z,12.30
2018-04-17T02:01:52.310Z,12.20
2018-04-17T02:04:19.842Z,12.30
2018-04-17T02:06:47.365Z,12.30
2018-04-17T02:09:14.915Z,12.20
2018-04-17T02:11:42.468Z,12.00
2018-04-17T02:14:10.200Z,11.90
2018-04-17T02:16:37.707Z,11.90
2018-04-17T02:19:05.275Z,12.00
2018-04-17T02:21:34.306Z,12.00
2018-04-17T02:24:01.846Z,12.10
2018-04-17T02:26:29.393Z,12.10
2018-04-17T02:28:56.910Z,12.20
2018-04-17T02:31:24.428Z,12.20
2018-04-17T02:33:53.572Z,12.10
2018-04-17T02:36:21.136Z,12.10
2018-04-17T02:38:48.646Z,12.10
2018-04-17T02:41:16.926Z,12.10
2018-04-17T02:43:44.442Z,12.10
2018-04-17T02:46:11.963Z,12.10
2018-04-17T02:48:39.518Z,12.10
2018-04-17T02:51:07.826Z,12.00
2018-04-17T02:53:35.378Z,12.00
2018-04-17T02:56:02.894Z,12.10
2018-04-17T02:58:30.547Z,12.10
2018-04-17T03:00:58.070Z,12.10
2018-04-17T03:03:25.602Z,12.10
2018-04-17T03:05:53.120Z,12.10
2018-04-17T03:08:20.683Z,12.00
2018-04-17T03:10:48.208Z,11.90
2018-04-17T03:13:15.762Z,11.70
2018-04-17T03:15:43.275Z,11.60
2018-04-17T03:18:10.814Z,11.70
2018-04-17T03:20:38.330Z,11.80
2018-04-17T03:23:05.900Z,12.00
2018-04-17T03:25:33.530Z,11.90
2018-04-17T03:28:01.052Z,12.00
2018-04-17T03:30:28.577Z,12.00
2018-04-17T03:32:56.142Z,11.90
2018-04-17T03:35:23.678Z,11.90
2018-04-17T03:37:51.186Z,11.90
2018-04-17T03:40:18.775Z,11.80
2018-04-17T03:42:46.303Z,11.90
2018-04-17T03:45:14.000Z,11.90
2018-04-17T03:47:41.520Z,11.90
2018-04-17T03:50:09.797Z,11.60
2018-04-17T03:52:38.170Z,11.60
2018-04-17T03:55:05.702Z,11.60
2018-04-17T03:57:33.257Z,11.60
2018-04-17T04:00:00.781Z,11.60
2018-04-17T04:02:28.339Z,11.60
2018-04-17T04:04:55.880Z,11.70
2018-04-17T04:07:23.429Z,11.70
2018-04-17T04:09:50.945Z,11.70
2018-04-17T04:12:19.267Z,11.50
2018-04-17T04:14:46.790Z,11.50
2018-04-17T04:17:25.996Z,11.60
2018-04-17T04:20:05.390Z,11.60
2018-04-17T04:22:44.761Z,11.70
2018-04-17T04:25:24.196Z,11.60
2018-04-17T04:27:51.761Z,11.60
2018-04-17T04:30:19.273Z,11.70
2018-04-17T04:32:46.793Z,11.70
2018-04-17T04:35:14.337Z,11.80
2018-04-17T04:37:41.863Z,11.80
2018-04-17T04:40:09.415Z,11.80
2018-04-17T04:42:36.973Z,11.90
2018-04-17T04:45:06.710Z,11.80
2018-04-17T04:47:34.277Z,11.90
2018-04-17T04:50:01.789Z,11.90
2018-04-17T04:52:29.297Z,12.00
2018-04-17T04:54:57.607Z,12.10
2018-04-17T04:57:27.049Z,12.10
2018-04-17T04:59:56.040Z,12.10
2018-04-17T05:02:23.596Z,12.10
2018-04-17T05:04:51.143Z,12.20
2018-04-17T05:07:18.708Z,12.30
2018-04-17T05:09:46.246Z,12.30
2018-04-17T05:12:14.571Z,12.30
2018-04-17T05:14:42.096Z,12.30
2018-04-17T05:17:10.394Z,12.40
2018-04-17T05:19:37.940Z,12.30
2018-04-17T05:22:05.513Z,12.30
2018-04-17T05:24:33.104Z,12.40
2018-04-17T05:27:00.646Z,12.40
2018-04-17T05:29:28.165Z,12.50
2018-04-17T05:31:56.443Z,12.50
2018-04-17T05:34:24.788Z,12.60
2018-04-17T05:36:52.308Z,12.50
2018-04-17T05:39:19.853Z,12.60
2018-04-17T05:41:48.146Z,12.70
2018-04-17T05:44:15.730Z,12.70
2018-04-17T05:46:43.247Z,12.80
2018-04-17T05:49:11.540Z,12.90
2018-04-17T05:51:39.076Z,12.90
2018-04-17T05:54:07.356Z,13.00
2018-04-17T05:56:34.881Z,13.00
2018-04-17T05:59:02.409Z,13.00
2018-04-17T06:01:29.930Z,13.00
2018-04-17T06:03:59.011Z,13.00
2018-04-17T06:06:26.534Z,13.00
2018-04-17T06:08:54.495Z,12.90
2018-04-17T06:11:22.055Z,12.80
2018-04-17T06:13:49.573Z,12.70
2018-04-17T06:16:17.848Z,12.90
2018-04-17T06:18:46.160Z,13.00
2018-04-17T06:21:13.718Z,13.00
2018-04-17T06:23:41.299Z,13.10
2018-04-17T06:26:08.827Z,13.10
2018-04-17T06:28:36.386Z,13.20
2018-04-17T06:31:03.910Z,13.10
2018-04-17T06:33:31.447Z,13.40
2018-04-17T06:35:59.032Z,13.40
2018-04-17T06:38:27.375Z,13.60
2018-04-17T06:40:54.925Z,13.60
2018-04-17T06:43:22.459Z,13.80
2018-04-17T06:45:50.043Z,13.90
2018-04-17T06:48:17.598Z,14.00
2018-04-17T06:50:45.123Z,14.00
2018-04-17T06:53:13.410Z,14.00
2018-04-17T06:55:41.700Z,14.00
2018-04-17T06:58:09.288Z,14.00
2018-04-17T07:00:36.795Z,14.10
2018-04-17T07:03:05.078Z,14.20
2018-04-17T07:05:33.417Z,14.20
2018-04-17T07:08:00.955Z,14.20
2018-04-17T07:10:28.477Z,14.30
2018-04-17T07:12:56.043Z,14.20
2018-04-17T07:15:24.336Z,14.30
2018-04-17T07:17:51.914Z,14.20
2018-04-17T07:20:19.478Z,14.20
2018-04-17T07:22:47.030Z,14.20
2018-04-17T07:25:14.618Z,14.10
2018-04-17T07:27:42.150Z,14.30
2018-04-17T07:30:09.757Z,14.30
2018-04-17T07:32:37.288Z,14.50
2018-04-17T07:35:04.857Z,14.60
2018-04-17T07:37:33.153Z,14.60
2018-04-17T07:40:00.730Z,14.60
2018-04-17T07:42:28.273Z,14.60
2018-04-17T07:44:55.796Z,14.80
2018-04-17T07:47:34.119Z,14.70
2018-04-17T07:50:01.660Z,14.70
2018-04-17T07:52:29.209Z,14.90
2018-04-17T07:54:56.824Z,14.90
2018-04-17T07:57:24.343Z,15.00
2018-04-17T07:59:51.906Z,15.00
2018-04-17T08:02:19.423Z,14.80
2018-04-17T08:04:47.711Z,15.20
2018-04-17T08:07:16.001Z,15.20
2018-04-17T08:09:43.575Z,15.20
2018-04-17T08:12:11.145Z,15.20
2018-04-17T08:14:38.659Z,15.20
2018-04-17T08:17:06.942Z,15.40
2018-04-17T08:19:34.479Z,15.40
2018-04-17T08:22:02.017Z,15.50
2018-04-17T08:24:29.543Z,15.60
2018-04-17T08:26:57.054Z,15.70
2018-04-17T08:29:24.590Z,15.60
2018-04-17T08:31:52.117Z,15.80
2018-04-17T08:34:19.725Z,15.90
2018-04-17T08:36:47.302Z,16.00
2018-04-17T08:39:14.784Z,15.90
2018-04-17T08:41:43.153Z,15.90
2018-04-17T08:44:10.751Z,15.90
2018-04-17T08:46:38.272Z,15.80
2018-04-17T08:49:06.600Z,16.00
2018-04-17T08:51:35.017Z,15.90
2018-04-17T08:54:02.556Z,16.10
2018-04-17T08:56:30.087Z,16.10
2018-04-17T08:58:57.656Z,16.20
2018-04-17T09:01:25.256Z,16.40
2018-04-17T09:03:52.880Z,16.40
2018-04-17T09:06:20.560Z,16.40
2018-04-17T09:08:48.571Z,16.50
2018-04-17T09:11:17.344Z,16.70
2018-04-17T09:13:45.770Z,16.70
2018-04-17T09:16:15.282Z,16.80
2018-04-17T09:18:42.875Z,16.70
2018-04-17T09:21:11.146Z,16.70
2018-04-17T09:23:40.644Z,16.80
2018-04-17T09:26:11.385Z,16.90
2018-04-17T09:28:40.306Z,17.10
2018-04-17T09:31:08.012Z,17.10
2018-04-17T09:33:35.538Z,17.30
2018-04-17T09:36:03.949Z,17.40
2018-04-17T09:38:32.275Z,17.60
2018-04-17T09:40:59.790Z,17.60
2018-04-17T09:43:27.334Z,17.70
2018-04-17T09:45:54.869Z,17.80
2018-04-17T09:48:22.402Z,17.90
2018-04-17T09:50:49.953Z,17.80
2018-04-17T09:53:17.518Z,17.70
2018-04-17T09:55:45.118Z,17.80
2018-04-17T09:58:12.615Z,17.70
2018-04-17T10:00:45.770Z,17.70
2018-04-17T10:03:13.314Z,17.90
2018-04-17T10:05:40.841Z,17.90
2018-04-17T10:08:08.350Z,18.10
2018-04-17T10:10:35.934Z,18.30
2018-04-17T10:13:03.486Z,18.40
2018-04-17T10:15:30.992Z,18.40
2018-04-17T10:17:58.834Z,18.20
2018-04-17T10:20:26.386Z,18.10
2018-04-17T10:22:53.919Z,18.30
2018-04-17T10:25:22.202Z,18.50
2018-04-17T10:27:49.733Z,18.50
2018-04-17T10:30:17.295Z,18.90
2018-04-17T10:32:44.844Z,19.60
2018-04-17T10:35:13.234Z,20.90
2018-04-17T10:37:40.750Z,22.70
2018-04-17T10:40:08.296Z,24.90
2018-04-17T10:42:35.825Z,26.40
2018-04-17T10:45:03.350Z,26.80
2018-04-17T10:47:30.947Z,28.10
2018-04-17T10:49:59.362Z,29.10
2018-04-17T10:52:26.887Z,29.10
2018-04-17T10:54:55.203Z,29.00
2018-04-17T10:57:22.760Z,28.90
2018-04-17T10:59:50.330Z,29.10
2018-04-17T11:02:17.859Z,29.00
2018-04-17T11:04:45.430Z,28.70
2018-04-17T11:07:13.609Z,28.90
2018-04-17T11:09:41.136Z,30.00
2018-04-17T11:12:09.422Z,31.70
2018-04-17T11:14:36.927Z,31.60
2018-04-17T11:17:04.469Z,31.90
2018-04-17T11:19:32.021Z,32.30
2018-04-17T11:21:59.553Z,32.60
2018-04-17T11:24:27.818Z,32.30
2018-04-17T11:26:55.359Z,32.20
2018-04-17T11:29:22.914Z,31.60
2018-04-17T11:31:51.253Z,32.10
2018-04-17T11:34:18.769Z,32.10
2018-04-17T11:36:46.353Z,33.00
2018-04-17T11:39:13.970Z,32.40
2018-04-17T11:41:42.249Z,32.60
2018-04-17T11:44:09.885Z,32.60
2018-04-17T11:46:37.527Z,33.10
2018-04-17T11:49:05.053Z,32.30
2018-04-17T11:51:32.669Z,30.60
2018-04-17T11:54:00.202Z,30.00
2018-04-17T11:56:28.485Z,29.30
2018-04-17T11:58:56.767Z,31.20
2018-04-17T12:01:25.063Z,32.70
2018-04-17T12:03:52.590Z,32.60
2018-04-17T12:06:20.128Z,31.60
2018-04-17T12:08:47.653Z,31.60
2018-04-17T12:11:15.150Z,32.60
2018-04-17T12:13:42.703Z,32.70
2018-04-17T12:16:10.232Z,33.50
2018-04-17T12:18:37.749Z,34.80
2018-04-17T12:21:05.277Z,36.10
2018-04-17T12:23:32.789Z,35.00
2018-04-17T12:26:00.310Z,34.30
2018-04-17T12:28:27.852Z,34.40
2018-04-17T12:30:55.376Z,33.40
2018-04-17T12:33:22.887Z,33.30
2018-04-17T12:35:50.395Z,33.10
2018-04-17T12:38:18.058Z,31.30
2018-04-17T12:40:45.568Z,28.70
2018-04-17T12:43:13.106Z,27.00
2018-04-17T12:45:40.665Z,27.40
2018-04-17T12:48:08.325Z,28.30
2018-04-17T12:50:35.865Z,27.90
2018-04-17T12:53:03.368Z,25.90
2018-04-17T12:55:31.023Z,24.90
2018-04-17T12:57:58.555Z,24.20
2018-04-17T13:00:26.105Z,23.50
2018-04-17T13:02:53.628Z,23.80
2018-04-17T13:05:21.142Z,23.20
2018-04-17T13:07:48.725Z,22.30
2018-04-17T13:10:16.282Z,21.80
2018-04-17T13:12:43.804Z,22.20
2018-04-17T13:15:11.322Z,22.10
2018-04-17T13:17:38.883Z,22.70
2018-04-17T13:20:06.405Z,22.70
2018-04-17T13:22:33.930Z,23.10
2018-04-17T13:25:01.447Z,24.00
2018-04-17T13:27:29.766Z,24.30
2018-04-17T13:29:57.330Z,24.30
2018-04-17T13:32:24.857Z,23.60
2018-04-17T13:34:53.129Z,24.40
2018-04-17T13:37:21.416Z,23.90
2018-04-17T13:39:49.689Z,23.50
2018-04-17T13:42:18.053Z,24.50
2018-04-17T13:44:45.551Z,24.50
2018-04-17T13:47:13.121Z,25.20
2018-04-17T13:49:40.633Z,24.90
2018-04-17T13:52:08.171Z,24.60
2018-04-17T13:54:35.727Z,24.50
2018-04-17T13:57:03.256Z,24.10
2018-04-17T13:59:30.808Z,23.70
2018-04-17T14:01:59.085Z,23.20
2018-04-17T14:04:26.628Z,23.20
2018-04-17T14:06:54.160Z,23.30
2018-04-17T14:09:21.686Z,23.60
2018-04-17T14:11:49.195Z,23.40
2018-04-17T14:14:16.914Z,23.10
2018-04-17T14:16:46.347Z,24.30
2018-04-17T14:19:16.238Z,26.70
2018-04-17T14:21:44.710Z,26.70
2018-04-17T14:24:12.298Z,25.30
2018-04-17T14:26:40.737Z,24.70
2018-04-17T14:29:08.240Z,24.50
2018-04-17T14:31:35.797Z,24.40
2018-04-17T14:34:03.306Z,26.00
2018-04-17T14:36:30.891Z,26.70
2018-04-17T14:38:58.515Z,25.80
2018-04-17T14:41:26.805Z,26.60
2018-04-17T14:43:54.350Z,26.60
2018-04-17T14:46:21.889Z,26.80
2018-04-17T14:48:49.530Z,26.80
2018-04-17T14:51:17.844Z,25.90
2018-04-17T14:53:46.132Z,25.10
2018-04-17T14:56:14.403Z,25.30
2018-04-17T14:58:42.696Z,25.20
2018-04-17T15:01:10.225Z,25.20
2018-04-17T15:03:37.762Z,25.60
2018-04-17T15:06:05.284Z,26.00
2018-04-17T15:08:32.848Z,26.60
2018-04-17T15:11:03.164Z,26.10
2018-04-17T15:13:30.786Z,25.50
2018-04-17T15:15:58.344Z,25.30
2018-04-17T15:18:25.910Z,25.60
2018-04-17T15:20:53.441Z,25.60
2018-04-17T15:23:20.953Z,25.10
2018-04-17T15:25:49.238Z,24.70
2018-04-17T15:28:16.825Z,24.70
2018-04-17T15:30:44.340Z,24.10
2018-04-17T15:33:12.629Z,23.70
2018-04-17T15:35:40.934Z,23.40
2018-04-17T15:38:08.473Z,23.40
2018-04-17T15:40:36.152Z,23.10
2018-04-17T15:43:03.674Z,22.80
2018-04-17T15:45:32.762Z,22.50
2018-04-17T15:48:04.544Z,22.10
2018-04-17T15:50:32.829Z,22.10
2018-04-17T15:53:00.472Z,22.10
2018-04-17T15:55:28.900Z,22.40
2018-04-17T15:57:56.663Z,22.40
2018-04-17T16:00:24.270Z,23.10
2018-04-17T16:02:52.736Z,23.70
2018-04-17T16:05:20.283Z,23.70
2018-04-17T16:07:48.874Z,24.00
2018-04-17T16:10:16.406Z,23.80
2018-04-17T16:12:44.026Z,23.60
2018-04-17T16:15:12.475Z,24.30
2018-04-17T16:17:40.113Z,24.30
2018-04-17T16:20:07.644Z,24.40
2018-04-17T16:22:35.217Z,24.90
2018-04-17T16:25:02.727Z,24.50
2018-04-17T16:27:30.261Z,24.60
2018-04-17T16:29:57.778Z,25.10
2018-04-17T16:32:25.348Z,25.60
2018-04-17T16:34:52.923Z,23.90
2018-04-17T16:37:20.484Z,23.70
2018-04-17T16:39:47.992Z,23.70
2018-04-17T16:42:15.522Z,23.10
2018-04-17T16:44:44.710Z,22.80
2018-04-17T16:47:12.261Z,22.70
2018-04-17T16:49:40.416Z,22.50
2018-04-17T16:52:07.966Z,22.30
2018-04-17T16:54:35.499Z,22.10
2018-04-17T16:57:03.113Z,21.90
2018-04-17T16:59:30.730Z,21.80
2018-04-17T17:01:58.249Z,21.70
2018-04-17T17:04:25.786Z,21.80
2018-04-17T17:06:53.353Z,21.80
2018-04-17T17:09:20.898Z,21.90
2018-04-17T17:11:48.412Z,22.00
2018-04-17T17:14:16.113Z,22.10
2018-04-17T17:16:43.731Z,22.00
2018-04-17T17:19:11.272Z,21.90
2018-04-17T17:21:38.794Z,21.70
2018-04-17T17:24:07.126Z,21.40
2018-04-17T17:26:34.661Z,21.40
2018-04-17T17:29:02.185Z,21.40
2018-04-17T17:31:30.475Z,21.30
2018-04-17T17:33:58.813Z,21.10
2018-04-17T17:36:26.346Z,21.10
2018-04-17T17:38:53.896Z,21.00
2018-04-17T17:41:21.942Z,20.90
2018-04-17T17:50:33.261Z,20.70
2018-04-17T17:53:01.544Z,20.10
2018-04-17T17:55:29.845Z,20.00
2018-04-17T17:57:57.404Z,20.00
2018-04-17T18:00:24.942Z,20.00
2018-04-17T18:02:53.252Z,19.80
2018-04-17T18:05:20.779Z,19.80
2018-04-17T18:07:48.297Z,19.70
2018-04-17T18:10:15.830Z,19.60
2018-04-17T18:12:43.363Z,19.40
2018-04-17T18:15:10.887Z,19.40
2018-04-17T18:17:38.443Z,19.30
2018-04-17T18:20:05.962Z,19.30
2018-04-17T18:22:33.494Z,19.30
2018-04-17T18:25:01.883Z,19.10
2018-04-17T18:27:29.456Z,19.00
2018-04-17T18:29:59.868Z,18.90
2018-04-17T18:32:28.193Z,18.70
2018-04-17T18:34:55.718Z,18.70
2018-04-17T18:37:23.217Z,18.70
2018-04-17T18:39:50.735Z,18.70
2018-04-17T18:42:18.335Z,18.60
2018-04-17T18:44:45.846Z,18.50
2018-04-17T18:47:14.170Z,18.40
2018-04-17T18:49:41.726Z,18.40
2018-04-17T18:52:09.343Z,18.50
2018-04-17T18:54:36.904Z,18.40
2018-04-17T18:57:05.214Z,18.20
2018-04-17T18:59:38.852Z,18.20
2018-04-17T19:02:06.388Z,18.20
2018-04-17T19:04:33.938Z,18.20
2018-04-17T19:07:01.616Z,18.20
2018-04-17T19:09:29.118Z,18.10
2018-04-17T19:11:57.387Z,18.10
2018-04-17T19:14:25.810Z,18.00
2018-04-17T19:16:53.423Z,18.00
2018-04-17T19:19:21.055Z,18.00
2018-04-17T19:21:48.610Z,17.90
2018-04-17T19:24:16.159Z,17.80
2018-04-17T19:26:43.687Z,17.80
2018-04-17T19:29:11.216Z,17.70
2018-04-17T19:31:38.784Z,17.60
2018-04-17T19:34:06.344Z,17.60
2018-04-17T19:36:33.927Z,17.60
2018-04-17T19:39:01.505Z,17.60
2018-04-17T19:41:29.095Z,17.50
2018-04-17T19:43:56.651Z,17.40
2018-04-17T19:46:24.187Z,17.30
2018-04-17T19:48:51.765Z,17.20
2018-04-17T19:51:19.323Z,17.20
2018-04-17T19:53:46.860Z,17.20
2018-04-17T19:56:14.366Z,17.20
2018-04-17T19:58:41.921Z,17.10
2018-04-17T20:01:09.445Z,17.10
2018-04-17T20:03:37.040Z,17.10
2018-04-17T20:06:04.565Z,17.00
2018-04-17T20:08:32.141Z,17.00
2018-04-17T20:10:59.792Z,17.00
2018-04-17T20:13:27.419Z,16.90
2018-04-17T20:15:54.933Z,16.90
2018-04-17T20:18:22.605Z,16.90
2018-04-17T20:20:50.134Z,16.80
2018-04-17T20:23:17.690Z,16.80
2018-04-17T20:25:45.269Z,16.70
2018-04-17T20:28:12.865Z,16.60
2018-04-17T20:30:41.183Z,16.50
2018-04-17T20:33:08.845Z,16.50
2018-04-17T20:35:36.497Z,16.50
2018-04-17T20:38:04.058Z,16.50
2018-04-17T20:40:31.637Z,16.40
2018-04-17T20:42:59.210Z,16.40
2018-04-17T20:45:26.737Z,16.30
2018-04-17T20:47:55.145Z,16.30
2018-04-17T20:50:22.855Z,16.20
2018-04-17T20:52:50.523Z,16.20
2018-04-17T20:55:18.863Z,16.20
2018-04-17T20:57:46.426Z,16.10
2018-04-17T21:00:14.099Z,16.20
2018-04-17T21:02:41.632Z,16.20
2018-04-17T21:05:09.146Z,16.10
2018-04-17T21:07:36.684Z,16.10
2018-04-17T21:10:04.208Z,16.10
2018-04-17T21:12:31.751Z,16.10
2018-04-17T21:14:59.290Z,16.00
2018-04-17T21:17:27.616Z,16.00
2018-04-17T21:19:55.872Z,16.00
2018-04-17T21:22:23.421Z,16.00
2018-04-17T21:24:51.007Z,16.00
2018-04-17T21:27:18.617Z,15.90
2018-04-17T21:29:47.000Z,15.80
2018-04-17T21:32:16.320Z,15.80
2018-04-17T21:34:43.878Z,15.90
2018-04-17T21:37:11.482Z,15.90
2018-04-17T21:39:39.403Z,15.90
2018-04-17T21:42:07.695Z,15.80
2018-04-17T21:44:35.265Z,15.80
2018-04-17T21:47:02.822Z,15.80
2018-04-17T21:49:30.433Z,15.70
2018-04-17T21:51:57.976Z,15.60
2018-04-17T21:54:25.535Z,15.50
2018-04-17T21:56:53.091Z,15.50
2018-04-17T21:59:20.668Z,15.50
2018-04-17T22:01:48.216Z,15.50
2018-04-17T22:04:15.741Z,15.40
2018-04-17T22:06:43.287Z,15.40
2018-04-17T22:09:11.602Z,15.40
2018-04-17T22:11:39.210Z,15.30
2018-04-17T22:14:07.511Z,15.30
2018-04-17T22:16:35.128Z,15.30
2018-04-17T22:19:02.731Z,15.30
2018-04-17T22:21:30.280Z,15.20
2018-04-17T22:23:58.668Z,15.20
2018-04-17T22:26:26.320Z,15.20
2018-04-17T22:28:53.941Z,15.20
2018-04-17T22:31:21.485Z,15.20
2018-04-17T22:33:49.090Z,15.10
2018-04-17T22:36:17.420Z,15.10
2018-04-17T22:38:45.350Z,15.00
2018-04-17T22:41:13.882Z,15.00
2018-04-17T22:43:41.455Z,15.00
2018-04-17T22:46:09.011Z,14.90
2018-04-17T22:48:36.549Z,14.90
2018-04-17T22:51:04.113Z,14.90
2018-04-17T22:53:31.698Z,14.80
2018-04-17T22:56:00.056Z,14.70
2018-04-17T22:58:27.810Z,14.70
2018-04-17T23:00:57.171Z,14.70
2018-04-17T23:03:24.730Z,14.70
2018-04-17T23:05:52.317Z,14.70
2018-04-17T23:08:20.936Z,14.70
2018-04-17T23:10:48.480Z,14.70
2018-04-17T23:13:16.059Z,14.70
2018-04-17T23:15:43.606Z,14.60
2018-04-17T23:18:11.163Z,14.70
2018-04-17T23:20:38.877Z,14.70
2018-04-17T23:23:06.401Z,14.70
2018-04-17T23:25:33.996Z,14.70
2018-04-17T23:28:01.510Z,14.70
2018-04-17T23:30:29.052Z,14.60
2018-04-17T23:32:56.939Z,14.60
2018-04-17T23:35:24.477Z,14.50
2018-04-17T23:37:52.024Z,14.50
2018-04-17T23:40:19.633Z,14.50
2018-04-17T23:42:47.166Z,14.50
2018-04-17T23:45:14.852Z,14.40
2018-04-17T23:47:42.391Z,14.50
2018-04-17T23:50:09.987Z,14.50
2018-04-17T23:52:37.548Z,14.40
2018-04-17T23:55:05.074Z,14.40
2018-04-17T23:57:32.840Z,14.40
